CFG3NP LGSA-EDDM
Flight info
| Callsign | CFG3NP |
|---|---|
| Flight time | N/A |
| Altitude | 34000 |
| Route | SOKRI UB1 DDM UM619 YNN UL611 TUMBO DCT TAZ DCT NAVSU DCT GORPA DCT RASTA DCT REDBU Q112 NAPSA NAPSA4A |
| Aircraft | A321/M-SDE3FGHIRWY/LB1 |
Departure
| Time | 2026-05-06 14:45 |
|---|---|
| Airport | Chania International Airport (LGSA) |
Arrival
| Time | N/A |
|---|---|
| Airport | Munich Airport (EDDM) |
| Time | Latitude | Longitude | Altitude | Speed | Heading |
|---|---|---|---|---|---|
| 2026-05-06 14:15 | 35.53946 | 24.13847 | 498 ft | 0 kts | 20° |
| 2026-05-06 14:37 | 35.53931 | 24.13840 | 490 ft | 4 kts | 20° |
| 2026-05-06 14:37 | 35.53906 | 24.13828 | 489 ft | 4 kts | 20° |
| 2026-05-06 14:37 | 35.53886 | 24.13819 | 494 ft | 4 kts | 13° |
| 2026-05-06 14:38 | 35.53866 | 24.13820 | 492 ft | 4 kts | 308° |
| 2026-05-06 14:38 | 35.53855 | 24.13847 | 491 ft | 4 kts | 291° |
| 2026-05-06 14:38 | 35.53845 | 24.13877 | 489 ft | 3 kts | 291° |
| 2026-05-06 14:38 | 35.53844 | 24.13882 | 490 ft | 0 kts | 291° |
| 2026-05-06 14:41 | 35.53845 | 24.13879 | 489 ft | 2 kts | 290° |
| 2026-05-06 14:41 | 35.53842 | 24.13844 | 492 ft | 4 kts | 243° |
| 2026-05-06 14:42 | 35.53817 | 24.13822 | 492 ft | 8 kts | 207° |
| 2026-05-06 14:42 | 35.53764 | 24.13785 | 487 ft | 8 kts | 235° |
| 2026-05-06 14:42 | 35.53769 | 24.13721 | 491 ft | 10 kts | 289° |
| 2026-05-06 14:42 | 35.53804 | 24.13615 | 493 ft | 15 kts | 292° |
| 2026-05-06 14:43 | 35.53813 | 24.13512 | 495 ft | 11 kts | 229° |
| 2026-05-06 14:43 | 35.53748 | 24.13473 | 495 ft | 10 kts | 200° |
| 2026-05-06 14:43 | 35.53687 | 24.13447 | 495 ft | 8 kts | 184° |
| 2026-05-06 14:43 | 35.53659 | 24.13488 | 493 ft | 4 kts | 112° |
| 2026-05-06 14:44 | 35.53643 | 24.13538 | 499 ft | 14 kts | 112° |
| 2026-05-06 14:44 | 35.53524 | 24.13905 | 501 ft | 81 kts | 111° |
| 2026-05-06 14:44 | 35.53238 | 24.14786 | 491 ft | 138 kts | 112° |
| 2026-05-06 14:45 | 35.52367 | 24.17428 | 1146 ft | 173 kts | 112° |
| 2026-05-06 14:45 | 35.51895 | 24.18821 | 1786 ft | 176 kts | 112° |
| 2026-05-06 14:45 | 35.51480 | 24.20202 | 2347 ft | 176 kts | 105° |
| 2026-05-06 14:45 | 35.51197 | 24.21740 | 2531 ft | 194 kts | 102° |
| 2026-05-06 14:46 | 35.50901 | 24.23447 | 2653 ft | 214 kts | 102° |
| 2026-05-06 14:46 | 35.50591 | 24.25291 | 2916 ft | 225 kts | 102° |
| 2026-05-06 14:46 | 35.50270 | 24.27196 | 3350 ft | 230 kts | 102° |
| 2026-05-06 14:46 | 35.49942 | 24.29103 | 3949 ft | 228 kts | 102° |
| 2026-05-06 14:47 | 35.49599 | 24.31007 | 4507 ft | 229 kts | 102° |
| 2026-05-06 14:47 | 35.49262 | 24.32930 | 5038 ft | 232 kts | 102° |
| 2026-05-06 14:47 | 35.48931 | 24.34872 | 5578 ft | 233 kts | 102° |
| 2026-05-06 14:47 | 35.48598 | 24.36823 | 6126 ft | 234 kts | 102° |
| 2026-05-06 14:48 | 35.48264 | 24.38774 | 6673 ft | 234 kts | 102° |
| 2026-05-06 14:48 | 35.48056 | 24.40754 | 7152 ft | 236 kts | 82° |
| 2026-05-06 14:48 | 35.48642 | 24.42605 | 7606 ft | 236 kts | 51° |
| 2026-05-06 14:48 | 35.49884 | 24.43889 | 8086 ft | 235 kts | 24° |
| 2026-05-06 14:49 | 35.51462 | 24.44323 | 8574 ft | 235 kts | 357° |
| 2026-05-06 14:49 | 35.53027 | 24.43809 | 9080 ft | 235 kts | 330° |
| 2026-05-06 14:49 | 35.54217 | 24.42455 | 9568 ft | 237 kts | 303° |
| 2026-05-06 14:49 | 35.54749 | 24.40540 | 10073 ft | 242 kts | 275° |
| 2026-05-06 14:50 | 35.54617 | 24.38468 | 10537 ft | 244 kts | 265° |
| 2026-05-06 14:50 | 35.54402 | 24.36399 | 11011 ft | 245 kts | 265° |
| 2026-05-06 14:50 | 35.54185 | 24.34324 | 11492 ft | 245 kts | 265° |
| 2026-05-06 14:50 | 35.53967 | 24.32246 | 11969 ft | 246 kts | 266° |
| 2026-05-06 14:51 | 35.53822 | 24.30865 | 12283 ft | 246 kts | 266° |
| 2026-05-06 14:51 | 35.53531 | 24.28070 | 12935 ft | 247 kts | 266° |
| 2026-05-06 14:51 | 35.53313 | 24.25970 | 13418 ft | 248 kts | 266° |
| 2026-05-06 14:51 | 35.53095 | 24.23865 | 13892 ft | 249 kts | 267° |
| 2026-05-06 14:52 | 35.52877 | 24.21750 | 14307 ft | 250 kts | 267° |
| 2026-05-06 14:52 | 35.52662 | 24.19656 | 14711 ft | 251 kts | 266° |
| 2026-05-06 14:52 | 35.52623 | 24.17523 | 15096 ft | 249 kts | 283° |
| 2026-05-06 14:52 | 35.53198 | 24.15547 | 15472 ft | 248 kts | 302° |
| 2026-05-06 14:53 | 35.54353 | 24.13936 | 15609 ft | 259 kts | 322° |
| 2026-05-06 14:53 | 35.55838 | 24.12595 | 15787 ft | 269 kts | 323° |
| 2026-05-06 14:53 | 35.57360 | 24.11223 | 16103 ft | 273 kts | 323° |
| 2026-05-06 14:53 | 35.58892 | 24.09835 | 16477 ft | 275 kts | 322° |
| 2026-05-06 14:54 | 35.60435 | 24.08434 | 16851 ft | 277 kts | 322° |
| 2026-05-06 14:54 | 35.61987 | 24.07022 | 17212 ft | 278 kts | 322° |
| 2026-05-06 14:54 | 35.63549 | 24.05598 | 17576 ft | 280 kts | 322° |
| 2026-05-06 14:54 | 35.65118 | 24.04168 | 17936 ft | 282 kts | 322° |
| 2026-05-06 14:55 | 35.66716 | 24.02709 | 18293 ft | 283 kts | 322° |
| 2026-05-06 14:55 | 35.68282 | 24.01276 | 18604 ft | 285 kts | 322° |
| 2026-05-06 14:55 | 35.69899 | 23.99796 | 18907 ft | 286 kts | 322° |
| 2026-05-06 14:55 | 35.71478 | 23.98350 | 19207 ft | 288 kts | 322° |
| 2026-05-06 14:56 | 35.73088 | 23.96874 | 19511 ft | 289 kts | 322° |
| 2026-05-06 14:56 | 35.74704 | 23.95392 | 19811 ft | 290 kts | 322° |
| 2026-05-06 14:56 | 35.76324 | 23.93904 | 20109 ft | 291 kts | 322° |
| 2026-05-06 14:56 | 35.77956 | 23.92407 | 20395 ft | 293 kts | 322° |
| 2026-05-06 14:57 | 35.79593 | 23.90904 | 20677 ft | 294 kts | 322° |
| 2026-05-06 14:57 | 35.81239 | 23.89393 | 20955 ft | 296 kts | 322° |
| 2026-05-06 14:57 | 35.82894 | 23.87874 | 21247 ft | 297 kts | 322° |
| 2026-05-06 14:57 | 35.84555 | 23.86350 | 21532 ft | 298 kts | 322° |
| 2026-05-06 14:58 | 35.86223 | 23.84816 | 21813 ft | 300 kts | 322° |
| 2026-05-06 14:58 | 35.87897 | 23.83275 | 22083 ft | 301 kts | 322° |
| 2026-05-06 14:58 | 35.89579 | 23.81728 | 22359 ft | 302 kts | 323° |
| 2026-05-06 14:58 | 35.91270 | 23.80176 | 22618 ft | 304 kts | 323° |
| 2026-05-06 14:59 | 35.92414 | 23.79123 | 22801 ft | 305 kts | 322° |
| 2026-05-06 14:59 | 35.94671 | 23.77043 | 23157 ft | 306 kts | 322° |
| 2026-05-06 14:59 | 35.96391 | 23.75435 | 23274 ft | 316 kts | 322° |
| 2026-05-06 14:59 | 35.97560 | 23.74326 | 23376 ft | 323 kts | 322° |
| 2026-05-06 15:00 | 35.99367 | 23.72598 | 23511 ft | 334 kts | 322° |
| 2026-05-06 15:00 | 36.01228 | 23.70811 | 23652 ft | 344 kts | 322° |
| 2026-05-06 15:00 | 36.03146 | 23.68970 | 23770 ft | 355 kts | 322° |
| 2026-05-06 15:00 | 36.05122 | 23.67073 | 23883 ft | 364 kts | 322° |
| 2026-05-06 15:01 | 36.07150 | 23.65126 | 24002 ft | 373 kts | 322° |
| 2026-05-06 15:01 | 36.09224 | 23.63133 | 24114 ft | 382 kts | 322° |
| 2026-05-06 15:01 | 36.11346 | 23.61094 | 24229 ft | 391 kts | 322° |
| 2026-05-06 15:01 | 36.13511 | 23.59012 | 24346 ft | 399 kts | 322° |
| 2026-05-06 15:02 | 36.15725 | 23.56885 | 24466 ft | 406 kts | 322° |
| 2026-05-06 15:02 | 36.17974 | 23.54720 | 24590 ft | 413 kts | 322° |
| 2026-05-06 15:02 | 36.20256 | 23.52523 | 24827 ft | 417 kts | 321° |
| 2026-05-06 15:02 | 36.22556 | 23.50313 | 25113 ft | 419 kts | 322° |
| 2026-05-06 15:03 | 36.25026 | 23.48374 | 25402 ft | 422 kts | 332° |
| 2026-05-06 15:03 | 36.27752 | 23.46987 | 25700 ft | 426 kts | 341° |
| 2026-05-06 15:03 | 36.30651 | 23.46186 | 26001 ft | 429 kts | 348° |
| 2026-05-06 15:03 | 36.33605 | 23.45585 | 26295 ft | 431 kts | 348° |
| 2026-05-06 15:04 | 36.36572 | 23.44979 | 26588 ft | 433 kts | 348° |
| 2026-05-06 15:04 | 36.39548 | 23.44365 | 26868 ft | 435 kts | 348° |
| 2026-05-06 15:04 | 36.42539 | 23.43748 | 27149 ft | 436 kts | 348° |
| 2026-05-06 15:04 | 36.45539 | 23.43128 | 27417 ft | 438 kts | 348° |
| 2026-05-06 15:05 | 36.48555 | 23.42502 | 27689 ft | 440 kts | 348° |
| 2026-05-06 15:05 | 36.51579 | 23.41873 | 27953 ft | 442 kts | 348° |
| 2026-05-06 15:05 | 36.54615 | 23.41242 | 28228 ft | 443 kts | 348° |
| 2026-05-06 15:05 | 36.57665 | 23.40608 | 28494 ft | 445 kts | 348° |
| 2026-05-06 15:06 | 36.60724 | 23.39973 | 28756 ft | 447 kts | 348° |
| 2026-05-06 15:06 | 36.63798 | 23.39336 | 29002 ft | 449 kts | 348° |
| 2026-05-06 15:06 | 36.66880 | 23.38698 | 29334 ft | 448 kts | 348° |
| 2026-05-06 15:06 | 36.69950 | 23.38061 | 29701 ft | 447 kts | 348° |
| 2026-05-06 15:07 | 36.73023 | 23.37422 | 30058 ft | 447 kts | 348° |
| 2026-05-06 15:07 | 36.76082 | 23.36783 | 30359 ft | 446 kts | 348° |
| 2026-05-06 15:07 | 36.79140 | 23.36146 | 30665 ft | 445 kts | 347° |
| 2026-05-06 15:07 | 36.82193 | 23.35511 | 30984 ft | 444 kts | 347° |
| 2026-05-06 15:08 | 36.85231 | 23.34880 | 31292 ft | 443 kts | 347° |
| 2026-05-06 15:08 | 36.88265 | 23.34247 | 31605 ft | 442 kts | 347° |
| 2026-05-06 15:08 | 36.91294 | 23.33614 | 31918 ft | 441 kts | 347° |
| 2026-05-06 15:08 | 36.94318 | 23.32984 | 32225 ft | 440 kts | 347° |
| 2026-05-06 15:09 | 36.97334 | 23.32355 | 32542 ft | 439 kts | 347° |
| 2026-05-06 15:09 | 37.00344 | 23.31725 | 32859 ft | 438 kts | 347° |
| 2026-05-06 15:09 | 37.03344 | 23.31094 | 33177 ft | 437 kts | 347° |
| 2026-05-06 15:09 | 37.06336 | 23.30463 | 33488 ft | 436 kts | 347° |
| 2026-05-06 15:10 | 37.09321 | 23.29833 | 33795 ft | 435 kts | 346° |
| 2026-05-06 15:10 | 37.12303 | 23.29203 | 34014 ft | 435 kts | 346° |
| 2026-05-06 15:10 | 37.15277 | 23.28579 | 34072 ft | 432 kts | 347° |
| 2026-05-06 15:11 | 37.21146 | 23.27356 | 34071 ft | 430 kts | 346° |
| 2026-05-06 15:11 | 37.27037 | 23.26114 | 34073 ft | 429 kts | 346° |
| 2026-05-06 15:12 | 37.32965 | 23.24857 | 34070 ft | 429 kts | 346° |
| 2026-05-06 15:12 | 37.38807 | 23.23621 | 34068 ft | 429 kts | 346° |
| 2026-05-06 15:13 | 37.44674 | 23.22274 | 34071 ft | 426 kts | 340° |
| 2026-05-06 15:13 | 37.49982 | 23.19266 | 34069 ft | 417 kts | 323° |
| 2026-05-06 15:14 | 37.54498 | 23.14715 | 34061 ft | 415 kts | 318° |
| 2026-05-06 15:14 | 37.58955 | 23.10071 | 34058 ft | 416 kts | 318° |
| 2026-05-06 15:15 | 37.63425 | 23.05434 | 34066 ft | 416 kts | 318° |
| 2026-05-06 15:15 | 37.67894 | 23.00784 | 34067 ft | 416 kts | 318° |
| 2026-05-06 15:16 | 37.72360 | 22.96120 | 34066 ft | 417 kts | 317° |